Time;durP1;ratioP1;P1;durP2;ratioP2;P2;SDS_P1;SDS_P2;PMS_P1;PMS_P2;Temp;Humidity;BMP_temperature;BMP_pressure;BME280_temperature;BME280_humidity;BME280_pressure;Samples;Min_cycle;Max_cycle;Signal;HPM_P1;HPM_P2
2022/12/29 00:02:38;;;;;;;21.55;12.70;;;;;;;5.82;69.65;98607.25;10368369;28;20411;-51
2022/12/29 00:07:37;;;;;;;16.33;10.85;;;;;;;5.87;69.03;98603.09;10342414;28;20443;-52
2022/12/29 00:17:53;;;;;;;13.18;8.50;;;;;;;5.60;69.01;98620.25;10355747;28;20076;-52
2022/12/29 00:44:15;;;;;;;22.60;16.00;;;;;;;5.28;70.65;98632.94;10352369;28;20843;-52
2022/12/29 00:49:30;;;;;;;23.00;13.88;;;;;;;5.21;70.94;98623.25;10359021;28;20152;-52
2022/12/29 00:54:31;;;;;;;22.08;14.40;;;;;;;5.20;71.09;98630.09;10356348;28;20068;-50
2022/12/29 00:59:30;;;;;;;24.60;15.95;;;;;;;5.07;71.30;98627.94;10361863;28;20068;-53
2022/12/29 01:04:29;;;;;;;23.17;15.15;;;;;;;4.98;71.32;98633.63;10354383;28;20057;-51
2022/12/29 01:14:46;;;;;;;32.38;22.05;;;;;;;4.87;72.22;98634.91;10360207;28;20072;-51
2022/12/29 01:19:44;;;;;;;34.00;22.15;;;;;;;4.86;72.00;98626.31;10352336;28;20041;-52
2022/12/29 01:24:43;;;;;;;25.45;18.80;;;;;;;4.70;72.94;98622.31;10364376;28;20462;-51
2022/12/29 01:29:42;;;;;;;31.05;23.25;;;;;;;4.68;72.77;98608.53;10355020;28;20132;-51
2022/12/29 01:34:41;;;;;;;29.52;22.55;;;;;;;4.54;73.50;98603.72;10358821;28;20128;-53
2022/12/29 01:39:40;;;;;;;27.88;17.77;;;;;;;4.28;74.35;98601.06;10363111;28;20017;-50
2022/12/29 01:45:10;;;;;;;23.88;16.88;;;;;;;4.15;74.50;98591.13;10374188;28;20051;-51
2022/12/29 01:50:13;;;;;;;34.40;23.20;;;;;;;3.95;75.31;98564.72;10356928;28;20068;-51
2022/12/29 01:55:13;;;;;;;48.83;31.35;;;;;;;3.75;76.63;98577.66;10373838;28;20053;-53
2022/12/29 02:00:13;;;;;;;47.67;28.75;;;;;;;3.56;77.26;98564.91;10360275;28;20479;-52
2022/12/29 02:06:10;;;;;;;32.20;19.05;;;;;;;3.40;77.94;98558.28;10371276;28;20067;-52
2022/12/29 02:11:10;;;;;;;16.75;11.27;;;;;;;3.41;77.93;98558.34;10345870;28;20120;-50
2022/12/29 02:16:18;;;;;;;;;;;;;;;3.46;78.43;98545.69;10353080;28;20068;-52
2022/12/29 02:21:51;;;;;;;17.35;10.73;;;;;;;3.54;78.53;98541.75;10349901;28;20379;-52
2022/12/29 02:27:11;;;;;;;16.38;10.35;;;;;;;3.63;78.40;98542.09;10363941;28;20069;-51
2022/12/29 02:32:35;;;;;;;16.63;9.95;;;;;;;3.73;78.11;98534.75;10366548;28;20564;-52
2022/12/29 02:37:45;;;;;;;14.90;10.02;;;;;;;3.84;77.38;98536.91;10354127;28;20053;-52
2022/12/29 02:42:50;;;;;;;;;;;;;;;3.89;77.20;98529.38;10350505;28;20056;-52
2022/12/29 02:48:13;;;;;;;12.35;9.13;;;;;;;3.93;76.49;98526.13;10356588;28;19952;-50
2022/12/29 02:53:15;;;;;;;16.92;9.93;;;;;;;3.76;76.19;98528.06;10362861;28;20056;-50
2022/12/29 02:58:20;;;;;;;25.45;15.70;;;;;;;3.46;76.56;98514.91;10365816;28;20081;-52
2022/12/29 03:03:48;;;;;;;28.92;17.77;;;;;;;3.27;77.10;98533.84;10361325;28;20060;-51
2022/12/29 03:09:16;;;;;;;26.60;17.08;;;;;;;3.00;78.63;98531.00;10349152;28;20077;-50
2022/12/29 03:19:48;;;;;;;31.48;19.02;;;;;;;2.61;78.66;98546.47;10347522;28;20081;-52
2022/12/29 03:24:51;;;;;;;31.63;19.92;;;;;;;2.37;79.89;98547.16;10356205;28;20072;-52
2022/12/29 03:29:56;;;;;;;38.90;25.90;;;;;;;2.19;80.62;98537.81;10356163;28;20057;-52
2022/12/29 03:34:55;;;;;;;35.78;25.08;;;;;;;2.09;80.84;98557.88;10356451;28;20554;-52
2022/12/29 03:39:55;;;;;;;;;;;;;;;1.98;81.83;98559.06;10353895;28;20113;-51
2022/12/29 03:44:56;;;;;;;28.37;20.03;;;;;;;2.01;81.43;98543.81;10362358;28;19956;-52
2022/12/29 03:49:55;;;;;;;27.80;17.85;;;;;;;2.08;82.14;98556.09;10348489;28;20118;-52
2022/12/29 03:54:54;;;;;;;38.38;24.80;;;;;;;2.16;82.15;98544.53;10354147;28;20037;-50
2022/12/29 03:59:53;;;;;;;47.95;29.83;;;;;;;2.25;82.74;98535.50;10359123;28;20112;-51
2022/12/29 04:04:52;;;;;;;42.45;25.85;;;;;;;2.21;83.97;98539.63;10345073;28;20113;-52
2022/12/29 04:09:51;;;;;;;39.47;23.58;;;;;;;2.16;83.46;98533.38;10353186;28;20035;-51
2022/12/29 04:14:51;;;;;;;32.80;21.45;;;;;;;2.17;83.67;98524.91;10362721;28;20663;-54
2022/12/29 04:19:51;;;;;;;29.60;19.55;;;;;;;2.15;83.32;98537.63;10349207;28;20476;-51
2022/12/29 04:24:50;;;;;;;;;;;;;;;2.05;83.62;98543.16;10357326;28;20087;-50
2022/12/29 04:29:49;;;;;;;37.80;22.17;;;;;;;2.04;82.85;98551.63;10360335;28;20351;-52
2022/12/29 04:34:48;;;;;;;39.58;24.38;;;;;;;2.04;82.82;98555.88;10378304;28;20072;-51
2022/12/29 04:39:46;;;;;;;33.22;21.70;;;;;;;2.01;82.79;98561.75;10379152;28;20487;-52
2022/12/29 04:44:45;;;;;;;41.05;23.00;;;;;;;1.95;83.12;98564.91;10379273;28;20414;-52
2022/12/29 04:49:44;;;;;;;34.83;22.40;;;;;;;1.88;83.07;98570.56;10378963;28;20152;-51
2022/12/29 04:54:43;;;;;;;37.05;22.85;;;;;;;1.82;83.27;98567.72;10379561;28;20060;-51
2022/12/29 04:59:42;;;;;;;36.05;22.80;;;;;;;1.77;83.51;98571.75;10379298;28;20025;-50
2022/12/29 05:04:41;;;;;;;43.03;24.27;;;;;;;1.69;83.80;98563.72;10348837;28;20032;-50
2022/12/29 05:09:40;;;;;;;47.55;31.75;;;;;;;1.54;84.32;98573.22;10337470;28;20124;-52
2022/12/29 05:14:39;;;;;;;108.57;66.00;;;;;;;1.53;84.76;98585.13;10368969;28;20091;-50
2022/12/29 05:19:38;;;;;;;96.10;55.33;;;;;;;1.36;85.52;98587.66;10378673;28;20044;-50
2022/12/29 05:24:37;;;;;;;77.20;50.03;;;;;;;1.23;85.98;98581.97;10375193;28;20120;-51
2022/12/29 05:29:36;;;;;;;97.43;57.88;;;;;;;1.15;85.91;98590.91;10377976;28;20037;-51
2022/12/29 05:34:35;;;;;;;101.13;59.67;;;;;;;1.09;86.17;98598.31;10339914;28;20032;-52
2022/12/29 05:39:34;;;;;;;103.25;57.33;;;;;;;1.08;86.12;98597.44;10411066;28;20040;-50
2022/12/29 05:44:33;;;;;;;101.22;62.30;;;;;;;1.10;86.26;98605.16;10414180;28;20462;-49
2022/12/29 05:49:32;;;;;;;109.78;61.45;;;;;;;1.06;85.99;98606.69;10394443;28;20135;-51
2022/12/29 05:54:31;;;;;;;110.60;62.97;;;;;;;1.07;86.32;98615.25;10400649;28;20119;-52
2022/12/29 05:59:30;;;;;;;98.43;55.08;;;;;;;1.02;86.52;98615.00;10407937;28;20048;-49
2022/12/29 06:04:29;;;;;;;102.40;58.17;;;;;;;1.01;86.91;98620.03;10418620;28;20143;-49
2022/12/29 06:09:28;;;;;;;99.25;58.08;;;;;;;1.02;87.02;98619.25;10382232;28;20030;-50
2022/12/29 06:14:27;;;;;;;104.88;58.05;;;;;;;1.00;87.39;98623.41;10406165;28;20039;-50
2022/12/29 06:19:26;;;;;;;94.55;56.30;;;;;;;1.03;87.45;98634.63;10374723;28;20128;-52
2022/12/29 06:24:25;;;;;;;89.13;53.72;;;;;;;0.97;87.81;98630.91;10404280;28;20064;-52
2022/12/29 06:29:24;;;;;;;78.90;51.63;;;;;;;0.97;87.74;98615.59;10391641;28;20031;-52
2022/12/29 06:34:23;;;;;;;101.20;59.50;;;;;;;1.05;87.94;98632.16;10401675;28;20098;-51
2022/12/29 06:39:22;;;;;;;88.30;52.75;;;;;;;1.06;87.54;98624.59;10401701;28;20055;-52
2022/12/29 06:44:21;;;;;;;60.22;38.65;;;;;;;1.25;87.43;98640.84;10410422;28;20032;-52
2022/12/29 06:49:20;;;;;;;63.42;38.22;;;;;;;1.19;87.82;98637.97;10413647;28;20052;-52
2022/12/29 06:54:19;;;;;;;64.45;40.78;;;;;;;1.32;87.43;98648.91;10372761;28;20051;-52
2022/12/29 06:59:18;;;;;;;58.78;33.60;;;;;;;1.40;87.53;98641.59;10410544;28;20525;-50
2022/12/29 07:04:17;;;;;;;54.50;35.95;;;;;;;1.48;87.74;98647.06;10411583;28;20214;-51
2022/12/29 07:09:16;;;;;;;77.25;47.65;;;;;;;1.59;87.34;98650.16;10409174;28;20116;-51
2022/12/29 07:14:15;;;;;;;62.72;40.20;;;;;;;1.64;87.10;98641.03;10412320;28;20036;-52
2022/12/29 07:19:14;;;;;;;67.13;41.47;;;;;;;1.73;87.69;98642.34;10413788;28;20119;-52
2022/12/29 07:24:13;;;;;;;59.67;34.83;;;;;;;1.88;87.35;98642.22;10411903;28;20044;-50
2022/12/29 07:29:12;;;;;;;49.28;30.45;;;;;;;2.09;87.31;98647.47;10412076;28;20035;-51
2022/12/29 07:34:11;;;;;;;52.42;32.97;;;;;;;2.30;86.10;98645.03;10392839;28;20033;-50
2022/12/29 07:39:11;;;;;;;64.65;40.25;;;;;;;2.44;86.29;98645.66;10373681;28;20108;-52
2022/12/29 07:44:10;;;;;;;53.72;34.83;;;;;;;2.45;85.51;98641.41;10388450;28;20066;-52
2022/12/29 07:49:09;;;;;;;54.75;37.78;;;;;;;2.53;85.22;98640.03;10375250;28;20024;-52
2022/12/29 07:54:09;;;;;;;52.35;34.42;;;;;;;2.68;85.07;98614.25;10399839;28;20064;-52
2022/12/29 07:59:08;;;;;;;63.83;42.25;;;;;;;2.90;84.76;98629.72;10412604;28;20056;-51
2022/12/29 08:04:07;;;;;;;52.35;33.15;;;;;;;3.05;84.47;98641.44;10413726;28;20017;-52
2022/12/29 08:09:06;;;;;;;43.35;28.63;;;;;;;3.10;83.98;98629.72;10414121;28;20483;-49
2022/12/29 08:14:05;;;;;;;50.40;35.35;;;;;;;3.17;83.98;98631.75;10408296;28;20071;-50
2022/12/29 08:19:04;;;;;;;42.75;30.45;;;;;;;3.35;83.31;98617.09;10409021;28;20048;-52
2022/12/29 08:24:04;;;;;;;63.00;40.05;;;;;;;3.54;82.72;98626.44;10410891;28;20071;-53
2022/12/29 08:29:03;;;;;;;39.88;24.52;;;;;;;3.62;82.34;98637.00;10413667;28;20063;-50
2022/12/29 08:34:03;;;;;;;84.22;52.65;;;;;;;3.73;82.26;98638.34;10412541;28;20043;-52
2022/12/29 08:39:03;;;;;;;29.88;20.13;;;;;;;3.95;81.78;98614.38;10375314;28;20076;-55
2022/12/29 08:44:02;;;;;;;55.28;34.88;;;;;;;4.19;81.52;98623.81;10395483;28;20137;-52
2022/12/29 08:49:01;;;;;;;36.65;24.83;;;;;;;4.31;81.38;98600.28;10412676;28;20392;-51
2022/12/29 08:54:00;;;;;;;37.58;24.23;;;;;;;4.46;80.39;98606.88;10396261;28;20062;-52
2022/12/29 08:58:59;;;;;;;36.13;26.25;;;;;;;4.57;80.17;98594.44;10400113;28;20040;-51
2022/12/29 09:03:58;;;;;;;42.55;26.35;;;;;;;4.89;79.45;98592.97;10412252;28;20064;-53
2022/12/29 09:08:57;;;;;;;37.63;24.27;;;;;;;5.09;78.97;98588.56;10406117;28;20111;-53
2022/12/29 09:13:56;;;;;;;36.13;24.92;;;;;;;5.30;77.97;98575.56;10382077;28;20079;-51
2022/12/29 09:18:55;;;;;;;45.63;30.20;;;;;;;5.50;77.07;98581.34;10381455;28;20065;-53
2022/12/29 09:23:54;;;;;;;55.70;36.03;;;;;;;5.84;75.51;98569.53;10409799;28;20029;-52
2022/12/29 09:28:53;;;;;;;51.33;36.60;;;;;;;6.14;75.48;98563.53;10398376;28;20085;-53
2022/12/29 09:33:52;;;;;;;56.33;37.17;;;;;;;6.25;73.28;98559.56;10416178;28;20072;-52
2022/12/29 09:38:53;;;;;;;51.42;34.85;;;;;;;6.46;72.37;98554.16;10400553;28;20032;-52
2022/12/29 09:44:27;;;;;;;43.53;28.45;;;;;;;6.73;72.61;98551.47;10398306;28;20067;-53
2022/12/29 09:49:26;;;;;;;39.53;27.77;;;;;;;7.04;71.79;98539.38;10386994;28;20059;-50
2022/12/29 09:55:04;;;;;;;30.27;21.23;;;;;;;7.31;70.71;98541.78;10387852;28;20040;-53
2022/12/29 10:00:46;;;;;;;35.95;23.95;;;;;;;7.63;70.31;98524.50;10376602;28;20521;-53
2022/12/29 10:06:04;;;;;;;40.70;27.95;;;;;;;7.96;69.58;98520.91;10371068;28;20103;-53
2022/12/29 10:11:15;;;;;;;40.38;27.63;;;;;;;8.18;68.14;98516.22;10406563;28;20160;-54
2022/12/29 10:16:19;;;;;;;51.78;36.65;;;;;;;8.37;66.79;98510.56;10399858;28;20072;-52
2022/12/29 10:21:37;;;;;;;64.50;45.00;;;;;;;8.60;64.52;98500.69;10400434;28;20072;-54
2022/12/29 10:26:41;;;;;;;59.55;42.85;;;;;;;8.83;65.03;98490.75;10380516;28;20076;-52
2022/12/29 10:31:50;;;;;;;69.00;47.35;;;;;;;9.10;64.38;98485.16;10388735;28;20072;-52
2022/12/29 10:36:57;;;;;;;65.00;47.42;;;;;;;9.24;62.67;98477.63;10400474;28;20071;-53
2022/12/29 10:42:37;;;;;;;72.35;50.38;;;;;;;9.46;62.14;98477.97;10406252;28;20059;-53
2022/12/29 10:47:47;;;;;;;71.93;48.88;;;;;;;9.71;61.98;98469.69;10384506;28;20155;-53
2022/12/29 10:52:48;;;;;;;62.97;40.78;;;;;;;9.91;61.17;98463.91;10393898;28;20148;-51
2022/12/29 10:57:48;;;;;;;44.70;33.58;;;;;;;10.15;60.68;98465.97;10396436;28;20056;-53
2022/12/29 11:03:06;;;;;;;50.97;36.63;;;;;;;10.36;60.72;98449.78;10412643;28;20119;-54
2022/12/29 11:08:12;;;;;;;44.60;30.00;;;;;;;10.58;60.23;98461.25;10384836;28;20843;-53
2022/12/29 11:13:26;;;;;;;31.63;23.67;;;;;;;10.71;60.16;98447.53;10394705;28;20178;-51
2022/12/29 11:18:31;;;;;;;37.58;25.35;;;;;;;10.81;59.76;98430.31;10397256;28;20689;-53
2022/12/29 11:23:34;;;;;;;32.15;21.23;;;;;;;10.89;60.12;98435.59;10388760;28;20083;-53
2022/12/29 11:28:34;;;;;;;35.47;23.17;;;;;;;10.82;59.33;98413.88;10386011;28;20128;-51
2022/12/29 11:33:35;;;;;;;32.67;22.85;;;;;;;11.02;59.61;98427.94;10386895;28;20435;-54
2022/12/29 11:38:39;;;;;;;33.22;23.05;;;;;;;11.06;59.11;98423.63;10394208;28;20508;-54
2022/12/29 11:43:44;;;;;;;69.57;40.67;;;;;;;11.11;58.74;98423.69;10402516;28;20689;-53
2022/12/29 11:48:43;;;;;;;83.30;53.00;;;;;;;11.10;58.85;98414.13;10393144;28;20111;-53
2022/12/29 11:53:58;;;;;;;90.22;61.20;;;;;;;11.14;59.06;98405.50;10405946;28;20617;-53
2022/12/29 11:59:34;;;;;;;57.08;34.58;;;;;;;11.19;58.26;98415.06;10388887;28;20589;-53
2022/12/29 12:04:37;;;;;;;32.80;22.65;;;;;;;11.29;58.36;98410.81;10396495;28;20123;-52
2022/12/29 12:09:45;;;;;;;48.35;29.73;;;;;;;11.29;57.29;98408.22;10397568;28;20052;-52
2022/12/29 12:15:05;;;;;;;35.00;25.20;;;;;;;11.42;56.64;98407.41;10411674;28;20558;-51
2022/12/29 12:20:26;;;;;;;64.07;40.22;;;;;;;11.43;56.94;98398.78;10404912;28;20056;-52
2022/12/29 12:25:38;;;;;;;46.95;34.42;;;;;;;11.39;56.56;98385.75;10398131;28;20534;-53
2022/12/29 12:30:47;;;;;;;25.40;18.73;;;;;;;11.58;55.65;98382.38;10404752;28;20507;-53
2022/12/29 12:36:25;;;;;;;14.65;11.88;;;;;;;11.76;53.71;98389.41;10402956;28;20068;-53
2022/12/29 12:41:55;;;;;;;23.83;15.57;;;;;;;11.86;53.18;98388.59;10394562;28;20120;-53
2022/12/29 12:47:11;;;;;;;11.95;7.47;;;;;;;11.87;51.76;98389.44;10385069;28;20222;-50
2022/12/29 12:52:38;;;;;;;15.02;9.77;;;;;;;12.04;52.05;98394.69;10394236;28;20917;-54
2022/12/29 12:57:46;;;;;;;20.92;10.75;;;;;;;12.08;51.87;98396.47;10392395;28;20087;-53
2022/12/29 13:03:12;;;;;;;19.73;14.35;;;;;;;12.17;51.77;98387.81;10394539;28;20064;-52
2022/12/29 13:08:23;;;;;;;22.38;17.92;;;;;;;12.21;51.03;98400.84;10404370;28;20120;-52
2022/12/29 13:13:34;;;;;;;195.43;116.00;;;;;;;12.27;51.31;98411.31;10403237;28;20052;-52
2022/12/29 13:18:59;;;;;;;69.75;57.03;;;;;;;12.10;51.30;98413.81;10407434;28;20080;-53
2022/12/29 13:24:22;;;;;;;68.32;56.38;;;;;;;12.07;51.53;98421.59;10408438;28;20056;-52
2022/12/29 13:29:40;;;;;;;91.40;82.35;;;;;;;12.17;51.46;98425.09;10403703;28;20069;-52
2022/12/29 13:34:57;;;;;;;89.00;80.32;;;;;;;12.25;51.75;98413.00;10404029;28;20075;-55
2022/12/29 13:40:01;;;;;;;23.65;21.08;;;;;;;12.30;51.83;98408.72;10384282;28;20534;-53
2022/12/29 13:45:11;;;;;;;18.60;14.75;;;;;;;12.33;51.76;98404.38;10401098;28;20518;-52
2022/12/29 13:50:21;;;;;;;;;;;;;;;12.28;50.92;98418.25;10403430;28;20128;-51
2022/12/29 13:55:35;;;;;;;25.05;18.08;;;;;;;12.26;51.12;98422.53;10403517;28;19967;-52
2022/12/29 14:00:53;;;;;;;31.98;22.92;;;;;;;12.23;51.18;98425.13;10401221;28;20064;-52
2022/12/29 14:06:16;;;;;;;31.85;21.88;;;;;;;12.16;51.22;98432.91;10398971;28;20530;-54
2022/12/29 14:11:17;;;;;;;31.55;19.05;;;;;;;11.99;51.72;98431.09;10411950;28;20756;-54
2022/12/29 14:16:29;;;;;;;32.38;22.02;;;;;;;11.89;51.79;98430.19;10391100;28;20060;-53
2022/12/29 14:21:29;;;;;;;27.20;17.42;;;;;;;11.76;51.87;98423.22;10403945;28;20076;-51
2022/12/29 14:26:28;;;;;;;33.42;23.65;;;;;;;11.61;52.22;98428.31;10399856;28;20071;-52
2022/12/29 14:31:30;;;;;;;27.33;19.13;;;;;;;11.47;52.39;98428.25;10386874;28;20045;-52
2022/12/29 14:36:55;;;;;;;25.42;17.63;;;;;;;11.22;53.21;98433.28;10388377;28;20068;-52
2022/12/29 14:42:09;;;;;;;23.33;17.63;;;;;;;10.99;53.32;98435.69;10383806;28;20064;-52
2022/12/29 14:47:08;;;;;;;20.25;13.18;;;;;;;10.76;53.81;98439.78;10389770;28;20072;-52
2022/12/29 14:52:16;;;;;;;22.95;15.13;;;;;;;10.50;54.21;98445.59;10394417;28;20075;-51
2022/12/29 14:57:32;;;;;;;22.15;15.88;;;;;;;10.27;54.91;98445.34;10374660;28;20068;-51
2022/12/29 15:02:38;;;;;;;35.80;20.77;;;;;;;9.96;55.54;98439.81;10369463;28;20524;-53
2022/12/29 15:07:37;;;;;;;25.25;17.58;;;;;;;9.82;55.55;98454.31;10380149;28;20079;-53
2022/12/29 15:12:46;;;;;;;29.27;20.92;;;;;;;9.62;56.87;98446.25;10387300;28;20064;-53
2022/12/29 15:17:45;;;;;;;24.38;16.88;;;;;;;9.39;57.05;98451.09;10371951;28;20072;-52
2022/12/29 15:22:48;;;;;;;56.30;39.47;;;;;;;9.21;57.95;98445.59;10358339;28;20125;-52
2022/12/29 15:27:53;;;;;;;49.75;32.17;;;;;;;9.10;58.61;98448.03;10377462;28;20077;-52
2022/12/29 15:32:52;;;;;;;94.18;56.70;;;;;;;8.96;59.23;98446.94;10371881;28;20068;-53
2022/12/29 15:37:51;;;;;;;43.85;26.73;;;;;;;8.78;59.52;98450.94;10383733;28;20147;-51
2022/12/29 15:43:11;;;;;;;62.30;41.55;;;;;;;8.58;60.11;98448.03;10375207;28;20024;-51
2022/12/29 15:48:21;;;;;;;67.82;43.22;;;;;;;8.40;60.94;98452.88;10369419;28;20076;-53
2022/12/29 15:53:38;;;;;;;64.38;39.28;;;;;;;8.21;61.71;98454.22;10372064;28;20072;-53
2022/12/29 15:58:48;;;;;;;79.00;45.50;;;;;;;7.93;62.74;98456.25;10371858;28;20071;-53
2022/12/29 16:03:48;;;;;;;86.20;52.78;;;;;;;7.73;63.97;98454.94;10370590;28;20088;-51
2022/12/29 16:09:02;;;;;;;79.00;49.42;;;;;;;7.55;64.04;98458.88;10370517;28;20126;-54
2022/12/29 16:14:05;;;;;;;71.95;47.28;;;;;;;7.42;65.18;98457.72;10360952;28;20528;-52
2022/12/29 16:19:13;;;;;;;78.50;49.78;;;;;;;7.30;65.39;98461.72;10362556;28;20080;-54
2022/12/29 16:24:16;;;;;;;66.07;42.70;;;;;;;7.18;65.50;98465.75;10393626;28;20076;-54
2022/12/29 16:29:16;;;;;;;67.47;42.42;;;;;;;7.08;66.50;98466.38;10390303;28;20140;-51
2022/12/29 16:34:27;;;;;;;70.63;42.58;;;;;;;6.97;67.50;98473.84;10377080;28;20068;-52
2022/12/29 16:39:35;;;;;;;66.38;39.38;;;;;;;6.87;67.41;98473.59;10377552;28;20597;-54
2022/12/29 16:44:34;;;;;;;67.55;40.90;;;;;;;6.78;68.27;98475.09;10376437;28;20103;-53
2022/12/29 16:49:36;;;;;;;57.97;39.50;;;;;;;6.72;68.28;98474.91;10375667;28;20064;-54
2022/12/29 16:54:36;;;;;;;58.78;36.88;;;;;;;6.61;69.03;98487.56;10375860;28;20076;-54
2022/12/29 16:59:42;;;;;;;54.90;37.45;;;;;;;6.58;68.69;98484.00;10376406;28;20060;-54
2022/12/29 17:04:41;;;;;;;64.82;41.55;;;;;;;6.53;69.02;98490.75;10361730;28;20060;-54
2022/12/29 17:09:40;;;;;;;66.25;44.33;;;;;;;6.46;69.89;98486.25;10375146;28;20076;-54
2022/12/29 17:14:42;;;;;;;63.53;43.15;;;;;;;6.40;70.18;98481.81;10364508;28;20496;-53
2022/12/29 17:19:48;;;;;;;70.63;46.75;;;;;;;6.27;70.59;98479.72;10374928;28;20080;-52
2022/12/29 17:24:47;;;;;;;146.18;96.50;;;;;;;6.03;72.83;98478.22;10377446;28;20496;-52
2022/12/29 17:29:46;;;;;;;177.45;113.50;;;;;;;5.96;72.76;98482.31;10381681;28;20506;-54
2022/12/29 17:34:45;;;;;;;;;;;;;;;5.84;72.64;98476.81;10385529;28;20061;-53
2022/12/29 17:39:44;;;;;;;203.50;128.82;;;;;;;5.75;72.98;98473.97;10375339;28;19916;-52
2022/12/29 17:44:43;;;;;;;179.20;106.82;;;;;;;5.59;73.71;98484.63;10375709;28;20573;-51
2022/12/29 17:49:44;;;;;;;244.77;128.02;;;;;;;5.37;74.67;98471.09;10373253;28;20419;-53
2022/12/29 17:54:51;;;;;;;200.32;111.10;;;;;;;5.21;75.52;98474.91;10373858;28;20567;-52
2022/12/29 17:59:51;;;;;;;327.08;189.20;;;;;;;5.10;76.39;98479.69;10374190;28;20068;-52
2022/12/29 18:04:50;;;;;;;213.68;126.88;;;;;;;5.02;76.70;98488.00;10373812;28;20076;-52
2022/12/29 18:09:49;;;;;;;230.38;132.10;;;;;;;4.98;76.48;98484.44;10373289;28;20512;-54
2022/12/29 18:14:48;;;;;;;207.55;125.57;;;;;;;4.93;76.69;98480.81;10373301;28;20103;-51
2022/12/29 18:19:49;;;;;;;265.83;184.70;;;;;;;4.81;77.96;98478.72;10363769;28;20449;-53
2022/12/29 18:24:48;;;;;;;219.18;138.30;;;;;;;4.70;77.94;98483.47;10335829;28;20356;-53
2022/12/29 18:29:47;;;;;;;312.75;193.10;;;;;;;4.61;78.48;98483.16;10389980;28;20598;-51
2022/12/29 18:34:47;;;;;;;252.82;161.30;;;;;;;4.50;78.29;98469.06;10370852;28;20075;-53
2022/12/29 18:39:46;;;;;;;251.98;155.40;;;;;;;4.53;78.53;98481.19;10373158;28;20133;-52
2022/12/29 18:44:46;;;;;;;193.77;122.43;;;;;;;4.43;78.88;98464.53;10373890;28;20199;-53
2022/12/29 18:49:45;;;;;;;211.73;131.55;;;;;;;4.39;79.61;98466.16;10368403;28;20073;-50
2022/12/29 18:54:44;;;;;;;223.90;138.82;;;;;;;4.32;79.74;98471.03;10373296;28;20031;-53
2022/12/29 18:59:42;;;;;;;224.05;138.98;;;;;;;4.25;79.99;98470.78;10360690;28;20072;-51
2022/12/29 19:04:42;;;;;;;251.23;155.68;;;;;;;4.16;80.45;98473.03;10413802;28;20031;-52
2022/12/29 19:09:40;;;;;;;273.17;163.05;;;;;;;4.10;80.94;98467.66;10396798;28;20080;-52
2022/12/29 19:14:39;;;;;;;270.20;167.40;;;;;;;4.08;81.17;98479.59;10370992;28;20108;-52
2022/12/29 19:19:41;;;;;;;371.00;219.85;;;;;;;3.78;81.76;98444.28;10353517;28;20042;-51
2022/12/29 19:24:40;;;;;;;383.48;227.07;;;;;;;3.91;81.88;98480.66;10368792;28;20072;-53
2022/12/29 19:29:39;;;;;;;341.40;205.60;;;;;;;3.86;81.78;98496.78;10370932;28;20201;-53
2022/12/29 19:34:38;;;;;;;289.27;177.95;;;;;;;3.77;82.16;98499.00;10370266;28;20031;-51
2022/12/29 19:39:37;;;;;;;315.60;197.75;;;;;;;3.69;82.30;98490.13;10367776;28;20064;-52
2022/12/29 19:44:36;;;;;;;329.20;186.85;;;;;;;3.59;82.86;98482.91;10371822;28;20111;-53
2022/12/29 19:49:35;;;;;;;265.15;149.80;;;;;;;3.51;83.10;98489.44;10364326;28;20148;-54
2022/12/29 19:54:34;;;;;;;353.63;199.88;;;;;;;3.36;84.52;98475.19;10366487;28;20526;-51
2022/12/29 19:59:33;;;;;;;250.95;136.55;;;;;;;3.36;84.33;98487.16;10357297;28;20519;-53
2022/12/29 20:04:32;;;;;;;227.38;127.40;;;;;;;3.30;84.07;98477.50;10368325;28;20033;-54
2022/12/29 20:09:31;;;;;;;368.10;213.20;;;;;;;3.34;84.77;98492.22;10368122;28;20106;-50
2022/12/29 20:14:30;;;;;;;327.77;194.43;;;;;;;3.26;86.06;98488.50;10369005;28;20047;-50
2022/12/29 20:19:30;;;;;;;318.95;182.50;;;;;;;3.25;85.30;98475.59;10363634;28;20072;-50
2022/12/29 20:24:32;;;;;;;325.95;198.38;;;;;;;3.19;85.72;98479.66;10371705;28;20072;-52
2022/12/29 20:29:37;;;;;;;288.25;173.05;;;;;;;3.23;86.54;98478.09;10380029;28;20083;-52
2022/12/29 20:34:36;;;;;;;300.27;174.35;;;;;;;3.35;86.38;98473.44;10369277;28;20503;-52
2022/12/29 20:39:35;;;;;;;312.25;182.45;;;;;;;3.41;86.72;98483.94;10367258;28;20037;-51
2022/12/29 20:44:35;;;;;;;185.85;117.25;;;;;;;3.42;86.72;98490.84;10367055;28;20075;-51
2022/12/29 20:49:34;;;;;;;;;;;;;;;3.46;86.13;98496.94;10360532;28;20065;-54
2022/12/29 20:54:33;;;;;;;184.63;117.15;;;;;;;3.56;86.16;98490.47;10363874;28;19963;-53
2022/12/29 20:59:32;;;;;;;;;;;;;;;3.68;85.68;98492.63;10349260;28;20076;-54
2022/12/29 21:04:31;;;;;;;170.38;104.20;;;;;;;3.77;86.22;98495.56;10365338;28;20035;-53
2022/12/29 21:09:30;;;;;;;310.48;174.23;;;;;;;3.89;85.78;98469.47;10357747;28;20021;-53
2022/12/29 21:14:28;;;;;;;321.70;183.88;;;;;;;3.95;86.04;98467.13;10375774;28;20047;-51
2022/12/29 21:19:28;;;;;;;552.20;281.27;;;;;;;3.96;85.70;98463.72;10373967;28;20425;-53
2022/12/29 21:24:27;;;;;;;301.05;175.90;;;;;;;3.77;86.16;98467.31;10382511;28;20072;-54
2022/12/29 21:29:26;;;;;;;275.08;161.05;;;;;;;3.56;86.68;98463.13;10382559;28;20080;-53
2022/12/29 21:34:24;;;;;;;213.68;130.52;;;;;;;3.32;86.26;98457.94;10376441;28;20053;-53
2022/12/29 21:39:23;;;;;;;255.95;150.30;;;;;;;3.29;86.13;98464.66;10371911;28;20134;-51
2022/12/29 21:49:40;;;;;;;250.35;151.15;;;;;;;3.11;86.39;98449.41;10371049;28;20159;-51
2022/12/29 22:15:50;;;;;;;178.18;109.82;;;;;;;2.84;88.33;98457.75;10374028;28;20522;-52
2022/12/29 22:20:49;;;;;;;175.70;103.88;;;;;;;2.71;89.26;98452.94;10362490;28;20511;-52
2022/12/29 22:25:50;;;;;;;170.05;105.05;;;;;;;2.75;88.36;98457.38;10375384;28;20091;-51
2022/12/29 22:30:49;;;;;;;171.90;106.38;;;;;;;2.76;88.81;98454.84;10378919;28;20514;-50
2022/12/29 22:35:47;;;;;;;156.30;98.95;;;;;;;2.79;88.57;98454.09;10364075;28;20522;-53
2022/12/29 22:40:47;;;;;;;147.98;90.40;;;;;;;2.65;88.47;98450.97;10371652;28;20136;-50
2022/12/29 22:45:45;;;;;;;150.15;88.40;;;;;;;2.59;88.86;98451.59;10371122;28;20060;-52
2022/12/29 22:50:44;;;;;;;110.28;64.43;;;;;;;2.62;89.02;98447.41;10368476;28;20518;-51
2022/12/29 22:55:43;;;;;;;93.25;54.03;;;;;;;2.73;88.77;98433.38;10367815;28;20127;-52
2022/12/29 23:00:42;;;;;;;103.15;59.67;;;;;;;2.80;89.35;98450.75;10349552;28;20029;-52
2022/12/29 23:05:41;;;;;;;101.95;59.17;;;;;;;2.81;89.91;98442.22;10371551;28;20120;-51
2022/12/29 23:10:40;;;;;;;107.70;61.35;;;;;;;2.91;89.31;98428.97;10368470;28;20039;-52
2022/12/29 23:15:39;;;;;;;106.88;65.80;;;;;;;3.02;89.29;98434.53;10357869;28;20047;-52
2022/12/29 23:20:39;;;;;;;95.97;59.20;;;;;;;3.09;89.73;98417.69;10356326;28;20044;-52
2022/12/29 23:25:38;;;;;;;122.30;70.75;;;;;;;3.14;90.01;98413.59;10375341;28;20076;-52
2022/12/29 23:30:37;;;;;;;;;;;;;;;3.33;89.76;98426.34;10376534;28;20463;-53
2022/12/29 23:35:36;;;;;;;103.15;59.72;;;;;;;3.37;89.99;98422.19;10370785;28;20639;-53
2022/12/29 23:40:35;;;;;;;110.78;62.75;;;;;;;3.42;89.17;98412.97;10372592;28;20475;-52
2022/12/29 23:45:35;;;;;;;123.38;72.03;;;;;;;3.49;88.94;98414.94;10373004;28;20416;-50
2022/12/29 23:50:37;;;;;;;101.15;60.45;;;;;;;3.57;88.80;98417.81;10370521;28;20077;-52
2022/12/29 23:55:40;;;;;;;85.30;54.20;;;;;;;3.52;88.73;98409.06;10360577;28;20072;-50
